sensor_id;sensor_type;location;lat;lon;timestamp;pressure;altitude;pressure_sealevel;temperature;humidity
65054;BME280;51639;47.828;35.038;2023-05-02T00:06:54;100816.47;;;10.43;100.00
65054;BME280;51639;47.828;35.038;2023-05-02T00:21:56;100827.56;;;10.11;100.00
65054;BME280;51639;47.828;35.038;2023-05-02T00:36:58;100839.31;;;9.83;100.00
65054;BME280;51639;47.828;35.038;2023-05-02T00:52:00;100842.91;;;9.59;100.00
65054;BME280;51639;47.828;35.038;2023-05-02T01:22:32;100876.69;;;9.30;100.00
65054;BME280;51639;47.828;35.038;2023-05-02T01:37:37;100883.25;;;9.21;100.00
65054;BME280;51639;47.828;35.038;2023-05-02T01:52:39;100898.38;;;9.08;100.00
65054;BME280;51639;47.828;35.038;2023-05-02T02:07:42;100904.22;;;8.96;100.00
65054;BME280;51639;47.828;35.038;2023-05-02T02:22:44;100911.16;;;8.83;100.00
65054;BME280;51639;47.828;35.038;2023-05-02T02:38:21;100942.09;;;8.75;100.00
65054;BME280;51639;47.828;35.038;2023-05-02T02:53:32;100965.31;;;8.72;100.00
65054;BME280;51639;47.828;35.038;2023-05-02T03:08:41;100995.50;;;8.99;100.00
65054;BME280;51639;47.828;35.038;2023-05-02T03:23:43;101004.03;;;9.33;100.00
65054;BME280;51639;47.828;35.038;2023-05-02T03:38:45;101012.88;;;9.83;100.00
65054;BME280;51639;47.828;35.038;2023-05-02T03:53:47;101021.59;;;10.44;100.00
65054;BME280;51639;47.828;35.038;2023-05-02T04:08:49;101043.41;;;11.03;100.00
65054;BME280;51639;47.828;35.038;2023-05-02T04:23:51;101056.44;;;11.74;100.00
65054;BME280;51639;47.828;35.038;2023-05-02T04:38:53;101075.69;;;12.32;100.00
65054;BME280;51639;47.828;35.038;2023-05-02T04:53:55;101087.03;;;12.91;100.00
65054;BME280;51639;47.828;35.038;2023-05-02T05:08:57;101094.53;;;13.64;100.00
65054;BME280;51639;47.828;35.038;2023-05-02T05:23:59;101095.50;;;14.40;100.00
65054;BME280;51639;47.828;35.038;2023-05-02T05:39:01;101101.22;;;15.38;100.00
65054;BME280;51639;47.828;35.038;2023-05-02T05:54:03;101105.84;;;16.06;100.00
65054;BME280;51639;47.828;35.038;2023-05-02T06:09:05;101105.63;;;16.70;100.00
65054;BME280;51639;47.828;35.038;2023-05-02T06:24:07;101101.94;;;17.41;100.00
65054;BME280;51639;47.828;35.038;2023-05-02T06:39:09;101128.69;;;17.62;100.00
65054;BME280;51639;47.828;35.038;2023-05-02T06:54:11;101135.63;;;18.35;100.00
65054;BME280;51639;47.828;35.038;2023-05-02T07:09:13;101151.16;;;18.64;98.68
65054;BME280;51639;47.828;35.038;2023-05-02T07:24:15;101160.19;;;19.26;95.96
65054;BME280;51639;47.828;35.038;2023-05-02T07:39:19;101153.31;;;19.71;75.74
65054;BME280;51639;47.828;35.038;2023-05-02T07:54:21;101157.34;;;19.97;59.21
65054;BME280;51639;47.828;35.038;2023-05-02T08:09:23;101156.91;;;20.26;56.87
65054;BME280;51639;47.828;35.038;2023-05-02T08:24:25;101149.69;;;20.65;48.43
65054;BME280;51639;47.828;35.038;2023-05-02T08:39:31;101146.81;;;21.20;38.92
65054;BME280;51639;47.828;35.038;2023-05-02T08:54:48;101141.75;;;21.75;36.96
65054;BME280;51639;47.828;35.038;2023-05-02T09:09:52;101146.00;;;22.09;40.67
65054;BME280;51639;47.828;35.038;2023-05-02T09:24:56;101145.69;;;22.07;36.84
65054;BME280;51639;47.828;35.038;2023-05-02T09:40:06;101153.06;;;22.78;35.75
65054;BME280;51639;47.828;35.038;2023-05-02T09:55:20;101159.63;;;22.96;36.24
65054;BME280;51639;47.828;35.038;2023-05-02T10:10:25;101161.28;;;22.88;32.84
65054;BME280;51639;47.828;35.038;2023-05-02T10:25:28;101156.72;;;23.34;32.60
65054;BME280;51639;47.828;35.038;2023-05-02T10:40:30;101163.13;;;23.75;33.36
65054;BME280;51639;47.828;35.038;2023-05-02T10:55:33;101153.44;;;24.26;33.79
65054;BME280;51639;47.828;35.038;2023-05-02T11:10:35;101142.25;;;24.00;30.98
65054;BME280;51639;47.828;35.038;2023-05-02T11:25:41;101140.06;;;23.84;30.24
65054;BME280;51639;47.828;35.038;2023-05-02T11:40:55;101134.75;;;21.41;33.73
65054;BME280;51639;47.828;35.038;2023-05-02T11:56:01;101127.66;;;20.38;35.82
65054;BME280;51639;47.828;35.038;2023-05-02T12:11:03;101135.34;;;19.48;38.26
65054;BME280;51639;47.828;35.038;2023-05-02T12:26:18;101106.84;;;19.33;39.03
65054;BME280;51639;47.828;35.038;2023-05-02T12:41:36;101120.63;;;19.02;39.96
65054;BME280;51639;47.828;35.038;2023-05-02T12:56:39;101126.44;;;18.73;40.12
65054;BME280;51639;47.828;35.038;2023-05-02T13:11:41;101123.50;;;18.67;40.83
65054;BME280;51639;47.828;35.038;2023-05-02T13:26:50;101135.00;;;18.53;41.00
65054;BME280;51639;47.828;35.038;2023-05-02T13:41:52;101133.47;;;18.30;42.36
65054;BME280;51639;47.828;35.038;2023-05-02T13:56:54;101135.13;;;18.28;42.67
65054;BME280;51639;47.828;35.038;2023-05-02T14:11:59;101145.13;;;18.22;42.57
65054;BME280;51639;47.828;35.038;2023-05-02T14:27:03;101142.88;;;18.08;44.45
65054;BME280;51639;47.828;35.038;2023-05-02T14:42:05;101140.03;;;17.98;44.81
65054;BME280;51639;47.828;35.038;2023-05-02T14:57:07;101130.75;;;17.83;44.02
65054;BME280;51639;47.828;35.038;2023-05-02T15:12:09;101132.94;;;17.88;45.44
65054;BME280;51639;47.828;35.038;2023-05-02T15:27:11;101140.09;;;17.73;44.54
65054;BME280;51639;47.828;35.038;2023-05-02T15:42:13;101141.19;;;17.88;45.16
65054;BME280;51639;47.828;35.038;2023-05-02T15:57:17;101150.66;;;17.36;47.48
65054;BME280;51639;47.828;35.038;2023-05-02T16:12:19;101159.78;;;17.21;49.05
65054;BME280;51639;47.828;35.038;2023-05-02T16:27:21;101167.53;;;16.97;52.52
65054;BME280;51639;47.828;35.038;2023-05-02T16:42:25;101182.75;;;16.85;56.44
65054;BME280;51639;47.828;35.038;2023-05-02T16:57:28;101185.13;;;16.54;59.44
65054;BME280;51639;47.828;35.038;2023-05-02T17:12:30;101196.16;;;16.38;62.32
65054;BME280;51639;47.828;35.038;2023-05-02T17:27:32;101205.59;;;16.21;64.21
65054;BME280;51639;47.828;35.038;2023-05-02T17:42:34;101215.03;;;16.03;66.94
65054;BME280;51639;47.828;35.038;2023-05-02T17:57:40;101225.06;;;15.94;69.24
65054;BME280;51639;47.828;35.038;2023-05-02T18:12:45;101244.38;;;15.87;71.39
65054;BME280;51639;47.828;35.038;2023-05-02T18:27:47;101235.38;;;15.70;74.29
65054;BME280;51639;47.828;35.038;2023-05-02T18:42:49;101236.53;;;15.53;78.49
65054;BME280;51639;47.828;35.038;2023-05-02T18:57:52;101245.88;;;15.35;82.56
65054;BME280;51639;47.828;35.038;2023-05-02T19:12:54;101235.69;;;15.00;88.91
65054;BME280;51639;47.828;35.038;2023-05-02T19:27:56;101242.28;;;14.83;94.38
65054;BME280;51639;47.828;35.038;2023-05-02T19:42:58;101243.47;;;14.82;99.51
65054;BME280;51639;47.828;35.038;2023-05-02T19:58:00;101248.28;;;14.74;100.00
65054;BME280;51639;47.828;35.038;2023-05-02T20:13:04;101242.91;;;14.47;100.00
65054;BME280;51639;47.828;35.038;2023-05-02T20:28:07;101238.13;;;14.28;100.00
65054;BME280;51639;47.828;35.038;2023-05-02T20:43:10;101247.75;;;14.13;100.00
65054;BME280;51639;47.828;35.038;2023-05-02T20:58:13;101236.69;;;13.96;100.00
65054;BME280;51639;47.828;35.038;2023-05-02T21:13:17;101250.69;;;13.98;100.00
65054;BME280;51639;47.828;35.038;2023-05-02T21:28:18;101245.47;;;13.84;100.00
65054;BME280;51639;47.828;35.038;2023-05-02T21:43:20;101247.06;;;13.82;100.00
65054;BME280;51639;47.828;35.038;2023-05-02T21:58:22;101244.91;;;13.70;100.00
65054;BME280;51639;47.828;35.038;2023-05-02T22:13:24;101247.91;;;13.48;100.00
65054;BME280;51639;47.828;35.038;2023-05-02T22:28:26;101243.50;;;13.58;100.00
65054;BME280;51639;47.828;35.038;2023-05-02T22:43:28;101255.31;;;13.48;100.00
65054;BME280;51639;47.828;35.038;2023-05-02T22:58:30;101258.50;;;13.46;100.00
65054;BME280;51639;47.828;35.038;2023-05-02T23:13:32;101271.25;;;13.22;100.00
65054;BME280;51639;47.828;35.038;2023-05-02T23:28:34;101264.81;;;13.02;100.00
65054;BME280;51639;47.828;35.038;2023-05-02T23:43:36;101273.97;;;12.85;100.00
65054;BME280;51639;47.828;35.038;2023-05-02T23:58:39;101267.78;;;12.81;100.00
